createdAt,value
2023-03-22T00:02:39.651Z,1009.06
2023-03-22T00:17:39.574Z,1008.96
2023-03-22T00:32:39.767Z,1008.92
2023-03-22T00:47:40.495Z,1008.70
2023-03-22T01:02:41.725Z,1008.66
2023-03-22T01:17:42.288Z,1008.55
2023-03-22T01:32:42.559Z,1008.37
2023-03-22T01:47:43.242Z,1008.17
2023-03-22T02:02:44.140Z,1008.23
2023-03-22T02:17:44.102Z,1008.14
2023-03-22T02:32:44.325Z,1007.96
2023-03-22T02:47:44.580Z,1007.99
2023-03-22T03:02:45.283Z,1007.86
2023-03-22T03:17:46.331Z,1007.81
2023-03-22T03:32:47.173Z,1007.89
2023-03-22T03:47:47.898Z,1007.87
2023-03-22T04:02:48.888Z,1007.84
2023-03-22T04:17:49.530Z,1007.82
2023-03-22T04:32:50.311Z,1007.77
2023-03-22T04:47:50.550Z,1007.66
2023-03-22T05:02:51.428Z,1007.60
2023-03-22T05:17:51.952Z,1007.50
2023-03-22T05:32:52.244Z,1007.44
2023-03-22T05:47:52.987Z,1007.49
2023-03-22T06:02:54.176Z,1007.43
2023-03-22T06:17:54.779Z,1007.42
2023-03-22T06:32:54.932Z,1007.46
2023-03-22T06:47:54.941Z,1007.42
2023-03-22T07:02:55.525Z,1007.43
2023-03-22T07:17:55.627Z,1007.42
2023-03-22T07:32:55.965Z,1007.38
2023-03-22T07:47:56.450Z,1007.23
2023-03-22T08:02:57.147Z,1007.21
2023-03-22T08:17:57.185Z,1007.19
2023-03-22T08:32:57.480Z,1006.99
2023-03-22T08:47:57.744Z,1006.85
2023-03-22T09:02:58.525Z,1006.88
2023-03-22T09:17:59.154Z,1006.74
2023-03-22T09:32:59.762Z,1006.74
2023-03-22T09:48:00.636Z,1006.52
2023-03-22T10:03:00.895Z,1006.40
2023-03-22T10:18:00.896Z,1006.24
2023-03-22T10:33:01.179Z,1005.93
2023-03-22T10:48:01.322Z,1005.70
2023-03-22T11:03:01.451Z,1005.70
2023-03-22T11:18:01.686Z,1005.71
2023-03-22T11:33:01.988Z,1005.49
2023-03-22T11:48:02.155Z,1005.40
2023-03-22T12:03:03.038Z,1005.11
2023-03-22T12:18:04.969Z,1004.70
2023-03-22T12:33:06.793Z,1004.68
2023-03-22T12:48:07.328Z,1004.62
2023-03-22T13:03:10.327Z,1004.52
2023-03-22T13:18:11.768Z,1004.34
2023-03-22T13:33:12.459Z,1004.43
2023-03-22T13:48:13.269Z,1004.43
2023-03-22T14:03:14.415Z,1004.19
2023-03-22T14:18:15.069Z,1004.18
2023-03-22T14:46:36.990Z,1004.07
2023-03-22T15:01:37.264Z,1003.92
2023-03-22T15:16:37.449Z,1003.83
2023-03-22T15:31:38.135Z,1003.78
2023-03-22T15:46:38.884Z,1003.85
2023-03-22T16:01:39.611Z,1004.06
2023-03-22T16:16:40.311Z,1004.13
2023-03-22T16:31:45.274Z,1004.26
2023-03-22T16:46:45.905Z,1004.43
2023-03-22T17:01:46.307Z,1004.59
2023-03-22T17:16:46.346Z,1004.64
2023-03-22T17:31:57.830Z,1004.56
2023-03-22T18:01:57.772Z,1004.78
2023-03-22T18:16:58.518Z,1004.72
2023-03-22T18:46:59.111Z,1004.96
2023-03-22T19:02:09.868Z,1004.89
2023-03-22T19:17:04.669Z,1004.56
2023-03-22T19:32:04.742Z,1004.59
2023-03-22T19:47:04.860Z,1004.50
2023-03-22T20:02:05.193Z,1004.54
2023-03-22T20:17:07.006Z,1004.48
2023-03-22T20:32:10.917Z,1004.21
2023-03-22T20:47:12.224Z,1004.08
2023-03-22T21:02:12.553Z,1004.10
2023-03-22T21:17:13.010Z,1004.13
2023-03-22T21:32:13.806Z,1004.09
2023-03-22T21:47:14.042Z,1003.91
2023-03-22T22:02:14.365Z,1003.84
2023-03-22T22:17:14.422Z,1003.61
2023-03-22T22:32:14.561Z,1003.54
2023-03-22T22:47:15.271Z,1003.48
2023-03-22T23:02:16.263Z,1003.54
2023-03-22T23:17:16.175Z,1003.39
2023-03-22T23:32:16.386Z,1003.23
2023-03-22T23:47:16.633Z,1002.96
